Time;durP1;ratioP1;P1;durP2;ratioP2;P2;SDS_P1;SDS_P2;PMS_P1;PMS_P2;Temp;Humidity;BMP_temperature;BMP_pressure;BME280_temperature;BME280_humidity;BME280_pressure;Samples;Min_cycle;Max_cycle;Signal;HPM_P1;HPM_P2
2022/03/04 00:00:41;;;;;;;27.40;17.47;;;0.00;99.90;;;;;;4993434;28;20296;-53
2022/03/04 00:03:11;;;;;;;27.00;17.17;;;-0.10;99.90;;;;;;4992255;28;20233;-53
2022/03/04 00:05:40;;;;;;;28.83;17.80;;;-0.10;99.90;;;;;;4993212;28;20239;-53
2022/03/04 00:08:09;;;;;;;27.67;16.47;;;-0.10;99.90;;;;;;4993203;28;20255;-53
2022/03/04 00:10:38;;;;;;;23.87;15.97;;;-0.10;99.90;;;;;;4992691;28;20217;-53
2022/03/04 00:13:06;;;;;;;25.80;17.37;;;-0.10;99.90;;;;;;4992734;28;20212;-54
2022/03/04 00:15:36;;;;;;;28.90;17.10;;;-0.10;99.90;;;;;;4992896;28;20232;-54
2022/03/04 00:18:04;;;;;;;27.83;16.87;;;-0.10;99.90;;;;;;4992756;28;20213;-53
2022/03/04 00:20:32;;;;;;;27.33;17.47;;;-0.10;99.90;;;;;;4992880;28;20209;-53
2022/03/04 00:23:00;;;;;;;29.27;16.57;;;-0.10;99.90;;;;;;4991358;28;20682;-53
2022/03/04 00:25:28;;;;;;;30.27;17.33;;;0.00;99.90;;;;;;4992472;28;20239;-54
2022/03/04 00:27:56;;;;;;;30.80;16.53;;;0.00;99.90;;;;;;4992229;28;20274;-53
2022/03/04 00:30:25;;;;;;;30.47;16.97;;;0.00;99.90;;;;;;4992655;28;20204;-53
2022/03/04 00:32:54;;;;;;;76.67;38.30;;;0.00;99.90;;;;;;4992177;28;20212;-53
2022/03/04 00:35:22;;;;;;;48.87;27.13;;;0.00;99.90;;;;;;4992700;28;20228;-53
2022/03/04 00:37:51;;;;;;;66.47;34.00;;;0.00;99.90;;;;;;4992583;28;20205;-53
2022/03/04 00:40:19;;;;;;;30.73;18.27;;;0.00;99.90;;;;;;4992544;28;20239;-53
2022/03/04 00:42:47;;;;;;;32.63;17.80;;;0.00;99.90;;;;;;4991838;28;20343;-53
2022/03/04 00:45:15;;;;;;;30.93;17.80;;;0.10;99.90;;;;;;4991938;28;20236;-53
2022/03/04 00:47:43;;;;;;;30.60;17.33;;;0.10;99.90;;;;;;4992574;28;20212;-53
2022/03/04 00:50:13;;;;;;;27.27;16.57;;;0.10;99.90;;;;;;4992607;28;20219;-53
2022/03/04 00:52:41;;;;;;;40.73;24.10;;;0.10;99.90;;;;;;4991532;28;20631;-53
2022/03/04 00:55:10;;;;;;;34.80;20.00;;;0.20;99.90;;;;;;4992446;28;20227;-53
2022/03/04 00:57:38;;;;;;;42.03;24.43;;;0.20;99.90;;;;;;4991783;28;20352;-53
2022/03/04 01:00:08;;;;;;;34.97;19.57;;;0.20;99.90;;;;;;4992085;28;20271;-53
2022/03/04 01:02:36;;;;;;;32.40;18.97;;;0.20;99.90;;;;;;4994526;28;20206;-54
2022/03/04 01:05:05;;;;;;;39.70;22.87;;;0.20;99.90;;;;;;4999843;28;20241;-53
2022/03/04 01:07:34;;;;;;;42.33;24.73;;;0.20;99.90;;;;;;4994244;28;20216;-52
2022/03/04 01:10:03;;;;;;;36.97;21.53;;;0.20;99.90;;;;;;4991655;28;20264;-53
2022/03/04 01:12:31;;;;;;;38.73;21.73;;;0.20;99.90;;;;;;4991861;28;20209;-53
2022/03/04 01:14:59;;;;;;;31.33;19.50;;;0.30;99.90;;;;;;4991866;28;20222;-54
2022/03/04 01:17:27;;;;;;;35.00;20.13;;;0.30;99.90;;;;;;4991629;28;20226;-53
2022/03/04 01:19:55;;;;;;;33.47;19.00;;;0.30;99.90;;;;;;4992334;28;20245;-53
2022/03/04 01:22:23;;;;;;;31.67;18.83;;;0.30;99.90;;;;;;4990940;28;20219;-53
2022/03/04 01:24:53;;;;;;;31.80;18.73;;;0.30;99.90;;;;;;4991520;28;20285;-52
2022/03/04 01:27:21;;;;;;;34.87;19.27;;;0.40;99.90;;;;;;4991681;28;20217;-53
2022/03/04 01:29:50;;;;;;;30.43;18.73;;;0.40;99.90;;;;;;4991888;28;20270;-52
2022/03/04 01:32:18;;;;;;;32.10;18.90;;;0.40;99.90;;;;;;4991594;28;20255;-53
2022/03/04 01:34:46;;;;;;;32.83;18.80;;;0.40;99.90;;;;;;4991395;28;20210;-53
2022/03/04 01:37:14;;;;;;;30.50;17.87;;;0.40;99.90;;;;;;4995677;28;20221;-53
2022/03/04 01:39:42;;;;;;;33.47;19.27;;;0.40;99.90;;;;;;4995818;28;20214;-53
2022/03/04 01:42:11;;;;;;;29.83;18.87;;;0.40;99.90;;;;;;4995249;28;20254;-53
2022/03/04 01:44:40;;;;;;;32.13;18.93;;;0.40;99.90;;;;;;4994703;28;20232;-53
2022/03/04 01:47:08;;;;;;;34.60;18.90;;;0.40;99.90;;;;;;4995508;28;20213;-53
2022/03/04 01:49:38;;;;;;;32.73;19.20;;;0.40;99.90;;;;;;4995768;28;20210;-53
2022/03/04 01:52:07;;;;;;;32.67;20.30;;;0.40;99.90;;;;;;4995285;28;20203;-52
2022/03/04 01:54:35;;;;;;;32.90;19.37;;;0.40;99.90;;;;;;4995149;28;20209;-53
2022/03/04 01:57:04;;;;;;;33.00;20.40;;;0.40;99.90;;;;;;4995625;28;20626;-54
2022/03/04 01:59:33;;;;;;;38.10;20.30;;;0.50;99.90;;;;;;4995160;28;20256;-53
2022/03/04 02:02:02;;;;;;;29.77;18.93;;;0.50;99.90;;;;;;4995000;28;20236;-53
2022/03/04 02:04:30;;;;;;;34.30;21.10;;;0.50;99.90;;;;;;4995263;28;20231;-53
2022/03/04 02:06:58;;;;;;;37.97;21.30;;;0.50;99.90;;;;;;4995197;28;20231;-53
2022/03/04 02:09:26;;;;;;;36.07;21.47;;;0.60;99.90;;;;;;4994946;28;20272;-53
2022/03/04 02:11:54;;;;;;;36.17;21.23;;;0.60;99.90;;;;;;4994935;28;20248;-53
2022/03/04 02:14:22;;;;;;;37.67;22.40;;;0.50;99.90;;;;;;4995378;28;20209;-53
2022/03/04 02:16:53;;;;;;;34.70;20.93;;;0.50;99.90;;;;;;4994897;28;20749;-53
2022/03/04 02:19:23;;;;;;;36.67;21.90;;;0.50;99.90;;;;;;4995003;28;20239;-53
2022/03/04 02:21:54;;;;;;;35.10;21.40;;;0.50;99.90;;;;;;4994497;28;20200;-53
2022/03/04 02:24:24;;;;;;;34.97;21.13;;;0.40;99.90;;;;;;4994823;28;20216;-53
2022/03/04 02:26:53;;;;;;;35.43;22.13;;;0.40;99.90;;;;;;4994515;28;20236;-53
2022/03/04 02:29:22;;;;;;;38.17;22.20;;;0.40;99.90;;;;;;4994766;28;20204;-53
2022/03/04 02:31:51;;;;;;;38.77;22.20;;;0.30;99.90;;;;;;4994502;28;20678;-53
2022/03/04 02:34:20;;;;;;;37.27;22.20;;;0.30;99.90;;;;;;4993991;28;20729;-53
2022/03/04 02:36:48;;;;;;;35.47;20.97;;;0.20;99.90;;;;;;4994533;28;20225;-53
2022/03/04 02:39:18;;;;;;;39.93;22.67;;;0.10;99.90;;;;;;4993347;28;20212;-53
2022/03/04 02:41:46;;;;;;;37.20;20.50;;;0.00;99.90;;;;;;4994292;28;20208;-53
2022/03/04 02:44:15;;;;;;;34.70;20.63;;;-0.10;99.90;;;;;;4994515;28;20209;-53
2022/03/04 02:46:44;;;;;;;39.43;23.03;;;-0.10;99.90;;;;;;4992378;28;20233;-53
2022/03/04 02:49:13;;;;;;;39.57;23.20;;;-0.10;99.90;;;;;;4994449;28;20743;-53
2022/03/04 02:51:41;;;;;;;38.20;22.17;;;-0.10;99.90;;;;;;4993753;28;20206;-53
2022/03/04 02:54:09;;;;;;;37.27;21.07;;;-0.10;99.90;;;;;;4994218;28;20217;-54
2022/03/04 02:56:39;;;;;;;36.80;22.03;;;-0.10;99.90;;;;;;4994234;28;20224;-53
2022/03/04 02:59:07;;;;;;;38.23;22.97;;;-0.20;99.90;;;;;;4993825;28;20258;-53
2022/03/04 03:01:35;;;;;;;43.27;24.13;;;-0.30;99.90;;;;;;4994595;28;20257;-53
2022/03/04 03:04:04;;;;;;;42.83;24.30;;;-0.40;99.90;;;;;;4993690;28;20226;-52
2022/03/04 03:06:32;;;;;;;42.17;25.53;;;-0.40;99.90;;;;;;4994421;28;20232;-53
2022/03/04 03:09:00;;;;;;;41.27;25.60;;;-0.40;99.90;;;;;;4994009;28;20208;-53
2022/03/04 03:11:28;;;;;;;38.87;23.20;;;-0.40;99.90;;;;;;4993978;28;20563;-53
2022/03/04 03:13:57;;;;;;;41.47;22.53;;;-0.50;99.90;;;;;;4993363;28;20229;-53
2022/03/04 03:16:26;;;;;;;40.97;21.87;;;-0.50;99.90;;;;;;4994017;28;20228;-53
2022/03/04 03:18:54;;;;;;;37.37;21.93;;;-0.50;99.90;;;;;;4994208;28;20213;-53
2022/03/04 03:21:22;;;;;;;37.20;21.90;;;-0.60;99.90;;;;;;4993922;28;20214;-52
2022/03/04 03:23:50;;;;;;;43.20;22.50;;;-0.60;99.90;;;;;;4996059;28;20209;-53
2022/03/04 03:26:18;;;;;;;35.20;21.07;;;-0.60;99.90;;;;;;4996725;28;20263;-53
2022/03/04 03:28:46;;;;;;;38.87;21.80;;;-0.60;99.90;;;;;;4993534;28;20219;-53
2022/03/04 03:31:16;;;;;;;35.37;21.20;;;-0.60;99.90;;;;;;4994068;28;20208;-53
2022/03/04 03:33:44;;;;;;;37.60;21.73;;;-0.60;99.90;;;;;;4992941;28;20205;-52
2022/03/04 03:36:12;;;;;;;40.50;21.83;;;-0.70;99.90;;;;;;4993483;28;20225;-53
2022/03/04 03:38:40;;;;;;;38.60;23.43;;;-0.60;99.90;;;;;;4993708;28;20234;-53
2022/03/04 03:41:09;;;;;;;42.47;24.23;;;-0.60;99.90;;;;;;4993290;28;20231;-53
2022/03/04 03:43:41;;;;;;;39.83;23.23;;;-0.60;99.90;;;;;;4993007;28;20236;-53
2022/03/04 03:46:10;;;;;;;38.67;22.83;;;-0.60;99.90;;;;;;4993182;28;20232;-54
2022/03/04 03:48:40;;;;;;;43.03;24.20;;;-0.60;99.90;;;;;;4993354;28;20604;-55
2022/03/04 03:51:10;;;;;;;48.80;25.50;;;-0.60;99.90;;;;;;4993115;28;20212;-54
2022/03/04 03:53:39;;;;;;;41.77;24.97;;;-0.60;99.90;;;;;;4993182;28;20267;-53
2022/03/04 03:56:07;;;;;;;44.03;25.70;;;-0.60;99.90;;;;;;4993411;28;20258;-53
2022/03/04 03:58:35;;;;;;;51.20;26.13;;;-0.60;99.90;;;;;;4992481;28;20625;-54
2022/03/04 04:01:04;;;;;;;49.83;26.57;;;-0.50;99.90;;;;;;4993436;28;20286;-54
2022/03/04 04:03:33;;;;;;;47.70;24.57;;;-0.50;99.90;;;;;;4992128;28;20740;-53
2022/03/04 04:06:02;;;;;;;53.53;28.10;;;-0.40;99.90;;;;;;4992866;28;20301;-53
2022/03/04 04:08:31;;;;;;;52.00;27.53;;;-0.50;99.90;;;;;;4993080;28;20213;-53
2022/03/04 04:10:59;;;;;;;46.47;26.83;;;-0.50;99.90;;;;;;4992726;28;20287;-53
2022/03/04 04:13:27;;;;;;;47.53;26.77;;;-0.50;99.90;;;;;;4992647;28;20208;-53
2022/03/04 04:15:55;;;;;;;47.00;26.50;;;-0.50;99.90;;;;;;4992710;28;20227;-53
2022/03/04 04:18:24;;;;;;;54.80;29.07;;;-0.50;99.90;;;;;;4992843;28;20258;-53
2022/03/04 04:20:52;;;;;;;47.20;27.27;;;-0.50;99.90;;;;;;4992990;28;20212;-53
2022/03/04 04:23:21;;;;;;;51.23;27.83;;;-0.50;99.90;;;;;;4992167;28;20209;-53
2022/03/04 04:25:50;;;;;;;51.27;27.80;;;-0.50;99.90;;;;;;4992354;28;20294;-53
2022/03/04 04:28:18;;;;;;;51.40;28.17;;;-0.60;99.90;;;;;;4992402;28;20266;-53
2022/03/04 04:30:46;;;;;;;56.70;28.60;;;-0.60;99.90;;;;;;4992637;28;20242;-53
2022/03/04 04:33:14;;;;;;;48.53;28.27;;;-0.60;99.90;;;;;;4991809;28;20696;-53
2022/03/04 04:35:42;;;;;;;53.57;28.47;;;-0.60;99.90;;;;;;4992818;28;20224;-53
2022/03/04 04:38:11;;;;;;;51.90;30.33;;;-0.60;99.90;;;;;;4992451;28;20759;-53
2022/03/04 04:40:40;;;;;;;54.00;30.77;;;-0.60;99.90;;;;;;4992302;28;20261;-53
2022/03/04 04:43:08;;;;;;;53.60;28.70;;;-0.70;99.90;;;;;;4991682;28;20264;-53
2022/03/04 04:45:36;;;;;;;47.93;25.10;;;-0.60;99.90;;;;;;4991440;28;20231;-54
2022/03/04 04:48:05;;;;;;;51.07;27.43;;;-0.60;99.90;;;;;;4992362;28;20669;-53
2022/03/04 04:50:33;;;;;;;52.80;27.47;;;-0.60;99.90;;;;;;4991972;28;20262;-53
2022/03/04 04:53:01;;;;;;;54.33;30.10;;;-0.60;99.90;;;;;;4991881;28;20208;-53
2022/03/04 04:55:29;;;;;;;54.57;28.50;;;-0.70;99.90;;;;;;4992212;28;20223;-53
2022/03/04 04:57:59;;;;;;;54.60;28.27;;;-0.70;99.90;;;;;;4991676;28;20585;-53
2022/03/04 05:00:27;;;;;;;52.27;28.33;;;-0.80;99.90;;;;;;4991993;28;20207;-53
2022/03/04 05:02:55;;;;;;;47.17;26.37;;;-0.80;99.90;;;;;;4991377;28;20208;-53
2022/03/04 05:05:23;;;;;;;47.43;25.50;;;-0.90;99.90;;;;;;4992290;28;20228;-53
2022/03/04 05:07:51;;;;;;;43.43;25.60;;;-0.90;99.90;;;;;;4992329;28;20636;-54
2022/03/04 05:10:20;;;;;;;40.63;23.40;;;-1.00;99.90;;;;;;4991650;28;20621;-53
2022/03/04 05:12:48;;;;;;;40.07;24.17;;;-1.10;99.90;;;;;;4991726;28;20215;-53
2022/03/04 05:15:17;;;;;;;43.77;24.80;;;-1.10;99.90;;;;;;4991792;28;20228;-53
2022/03/04 05:17:45;;;;;;;44.40;25.33;;;-1.10;99.90;;;;;;4991839;28;20208;-53
2022/03/04 05:20:13;;;;;;;43.93;24.83;;;-1.10;99.90;;;;;;4992080;28;20239;-53
2022/03/04 05:22:41;;;;;;;40.00;23.30;;;-1.10;99.90;;;;;;4991241;28;20586;-53
2022/03/04 05:25:10;;;;;;;46.17;26.07;;;-1.20;99.90;;;;;;4991763;28;20247;-53
2022/03/04 05:27:42;;;;;;;53.70;27.60;;;-1.20;99.90;;;;;;4991848;28;20239;-52
2022/03/04 05:30:11;;;;;;;54.30;30.13;;;-1.20;99.90;;;;;;4991466;28;20708;-53
2022/03/04 05:32:41;;;;;;;65.13;33.27;;;-1.20;99.90;;;;;;4991046;28;20702;-53
2022/03/04 05:35:09;;;;;;;63.83;32.80;;;-1.20;99.90;;;;;;4991886;28;20638;-53
2022/03/04 05:37:39;;;;;;;58.83;31.90;;;-1.20;99.90;;;;;;4991783;28;20203;-53
2022/03/04 05:40:08;;;;;;;69.50;35.17;;;-1.20;99.90;;;;;;4990063;28;20435;-53
2022/03/04 05:42:36;;;;;;;67.87;35.87;;;-1.20;99.90;;;;;;4992094;28;20265;-53
2022/03/04 05:45:05;;;;;;;64.80;34.77;;;-1.20;99.90;;;;;;4995669;28;20301;-53
2022/03/04 05:47:33;;;;;;;66.50;32.93;;;-1.20;99.90;;;;;;4994875;28;20277;-53
2022/03/04 05:50:03;;;;;;;67.43;34.90;;;-1.20;99.90;;;;;;4992083;28;20258;-53
2022/03/04 05:52:31;;;;;;;70.10;34.77;;;-1.20;99.90;;;;;;4990910;28;20324;-53
2022/03/04 05:55:00;;;;;;;69.27;34.90;;;-1.20;99.90;;;;;;4991528;28;20228;-53
2022/03/04 05:57:28;;;;;;;69.80;36.60;;;-1.30;99.90;;;;;;4991690;28;20212;-53
2022/03/04 05:59:58;;;;;;;70.67;37.00;;;-1.30;99.90;;;;;;4991423;28;20261;-53
2022/03/04 06:02:28;;;;;;;64.40;32.80;;;-1.30;99.90;;;;;;4991072;28;20736;-53
2022/03/04 06:04:57;;;;;;;66.43;33.80;;;-1.30;99.90;;;;;;4991100;28;20615;-53
2022/03/04 06:07:28;;;;;;;63.20;32.00;;;-1.30;99.90;;;;;;4991198;28;20228;-53
2022/03/04 06:09:56;;;;;;;71.80;34.23;;;-1.30;99.90;;;;;;4991571;28;20208;-52
2022/03/04 06:12:24;;;;;;;74.67;34.00;;;-1.30;99.90;;;;;;4991186;28;20258;-53
2022/03/04 06:14:52;;;;;;;71.47;36.07;;;-1.30;99.90;;;;;;4991351;28;20212;-53
2022/03/04 06:17:21;;;;;;;66.27;33.30;;;-1.30;99.90;;;;;;4990984;28;20624;-53
2022/03/04 06:19:49;;;;;;;71.20;32.20;;;-1.30;99.90;;;;;;4986339;28;20212;-52
2022/03/04 06:22:20;;;;;;;65.90;32.20;;;-1.20;99.90;;;;;;4976570;28;20690;-53
2022/03/04 06:24:50;;;;;;;71.70;36.27;;;-1.30;99.90;;;;;;5005440;28;20233;-53
2022/03/04 06:27:18;;;;;;;67.60;34.07;;;-1.30;99.90;;;;;;5002467;28;20319;-53
2022/03/04 06:29:46;;;;;;;65.83;31.13;;;-1.30;99.90;;;;;;4977978;28;20212;-52
2022/03/04 06:32:15;;;;;;;59.77;27.87;;;-1.20;99.90;;;;;;4975136;28;20211;-52
2022/03/04 06:34:43;;;;;;;73.20;34.70;;;-1.20;99.90;;;;;;4993877;28;20291;-53
2022/03/04 06:37:12;;;;;;;67.60;35.33;;;-1.20;99.90;;;;;;4994621;28;20238;-53
2022/03/04 06:39:40;;;;;;;64.10;32.03;;;-1.20;99.90;;;;;;4992740;28;20200;-53
2022/03/04 06:42:10;;;;;;;68.47;32.00;;;-1.10;99.90;;;;;;4993741;28;20250;-53
2022/03/04 06:44:38;;;;;;;67.73;35.80;;;-1.10;99.90;;;;;;4994408;28;20191;-53
2022/03/04 06:47:07;;;;;;;62.00;32.80;;;-1.10;99.90;;;;;;4993865;28;20728;-53
2022/03/04 06:49:35;;;;;;;66.87;34.00;;;-1.10;99.90;;;;;;4994065;28;20212;-53
2022/03/04 06:52:04;;;;;;;67.57;33.17;;;-1.10;99.90;;;;;;4993253;28;20224;-53
2022/03/04 06:54:33;;;;;;;68.23;33.57;;;-1.00;99.90;;;;;;4994057;28;20210;-53
2022/03/04 06:57:01;;;;;;;65.07;32.53;;;-1.00;99.90;;;;;;4994049;28;20224;-53
2022/03/04 06:59:31;;;;;;;60.90;32.50;;;-0.90;99.90;;;;;;4993602;28;20350;-53
2022/03/04 07:01:59;;;;;;;61.47;32.87;;;-0.90;99.90;;;;;;4993428;28;20230;-53
2022/03/04 07:04:28;;;;;;;60.77;31.57;;;-0.80;99.90;;;;;;4994122;28;20212;-53
2022/03/04 07:06:56;;;;;;;62.77;32.10;;;-0.70;99.90;;;;;;4993674;28;20262;-52
2022/03/04 07:09:24;;;;;;;59.70;31.60;;;-0.60;99.90;;;;;;4994054;28;20259;-53
2022/03/04 07:11:54;;;;;;;64.80;32.47;;;-0.50;99.90;;;;;;4993003;28;20343;-53
2022/03/04 07:14:22;;;;;;;58.40;31.87;;;-0.40;99.90;;;;;;4993732;28;20266;-53
2022/03/04 07:16:51;;;;;;;59.50;30.83;;;-0.40;99.90;;;;;;4993391;28;20231;-53
2022/03/04 07:19:19;;;;;;;58.23;30.10;;;-0.30;99.90;;;;;;4993429;28;20828;-54
2022/03/04 07:21:47;;;;;;;59.73;30.47;;;-0.20;99.90;;;;;;4993266;28;20211;-53
2022/03/04 07:24:16;;;;;;;59.37;29.27;;;-0.10;99.90;;;;;;4993536;28;20284;-53
2022/03/04 07:26:44;;;;;;;53.53;29.33;;;0.00;99.90;;;;;;4993515;28;20239;-53
2022/03/04 07:29:12;;;;;;;52.50;29.33;;;0.00;99.90;;;;;;4973702;28;20230;-54
2022/03/04 07:31:40;;;;;;;51.17;27.93;;;0.00;99.90;;;;;;4974273;28;20248;-52
2022/03/04 07:34:09;;;;;;;52.83;29.60;;;0.10;99.90;;;;;;4972864;28;20679;-53
2022/03/04 07:36:37;;;;;;;55.00;29.87;;;0.10;99.90;;;;;;4982854;28;20226;-53
2022/03/04 07:39:06;;;;;;;54.13;28.87;;;0.10;99.90;;;;;;4993355;28;20211;-54
2022/03/04 07:41:34;;;;;;;53.37;29.10;;;0.10;99.90;;;;;;4993039;28;20264;-54
2022/03/04 07:44:02;;;;;;;57.60;32.03;;;0.20;99.90;;;;;;4992670;28;20211;-53
2022/03/04 07:46:30;;;;;;;55.00;30.73;;;0.20;99.90;;;;;;4993656;28;20282;-54
2022/03/04 07:48:58;;;;;;;56.97;32.93;;;0.30;99.90;;;;;;4983310;28;20224;-54
2022/03/04 07:51:28;;;;;;;56.17;32.13;;;0.40;99.90;;;;;;4979269;28;20212;-54
2022/03/04 07:53:56;;;;;;;55.20;30.17;;;0.50;99.90;;;;;;5014078;22;20259;-51
2022/03/04 07:56:24;;;;;;;55.13;30.87;;;0.50;99.90;;;;;;5010917;28;20731;-52
2022/03/04 07:58:52;;;;;;;51.70;30.40;;;0.70;99.90;;;;;;5011989;28;20244;-52
2022/03/04 08:01:21;;;;;;;55.77;31.50;;;0.80;99.90;;;;;;5010597;28;20211;-52
2022/03/04 08:03:49;;;;;;;52.03;31.40;;;0.90;99.90;;;;;;5010770;28;20288;-51
2022/03/04 08:06:18;;;;;;;53.80;32.97;;;0.90;99.90;;;;;;5011106;28;20214;-51
2022/03/04 08:08:47;;;;;;;51.07;29.37;;;0.90;99.90;;;;;;5011193;28;20252;-51
2022/03/04 08:11:15;;;;;;;51.37;29.20;;;0.90;99.90;;;;;;5011423;28;20253;-51
2022/03/04 08:13:44;;;;;;;54.00;29.37;;;1.00;99.90;;;;;;5010145;28;20224;-51
2022/03/04 08:16:12;;;;;;;49.23;29.73;;;0.90;99.90;;;;;;5011593;28;20203;-51
2022/03/04 08:18:40;;;;;;;47.50;28.87;;;0.90;99.90;;;;;;5011934;28;20288;-51
2022/03/04 08:21:09;;;;;;;48.07;29.07;;;1.00;99.90;;;;;;5002016;28;20214;-52
2022/03/04 08:23:37;;;;;;;49.80;29.20;;;1.00;99.90;;;;;;5012007;28;20286;-52
2022/03/04 08:26:06;;;;;;;52.03;30.43;;;1.00;99.90;;;;;;5011835;28;20213;-51
2022/03/04 08:28:35;;;;;;;66.27;38.47;;;1.10;99.90;;;;;;5012160;28;20226;-51
2022/03/04 08:31:10;;;;;;;111.17;65.00;;;1.20;99.90;;;;;;5012147;28;20220;-51
2022/03/04 08:33:40;;;;;;;61.07;36.90;;;1.30;99.90;;;;;;5009048;28;20229;-51
2022/03/04 08:36:09;;;;;;;54.73;31.57;;;1.40;99.90;;;;;;5012190;28;20698;-52
2022/03/04 08:38:38;;;;;;;54.00;30.77;;;1.30;99.90;;;;;;4997260;28;20206;-51
2022/03/04 08:41:08;;;;;;;51.80;29.77;;;1.20;99.90;;;;;;5011718;28;20254;-51
2022/03/04 08:43:36;;;;;;;51.90;28.80;;;1.10;99.90;;;;;;5010123;28;20219;-51
2022/03/04 08:46:04;;;;;;;49.23;29.73;;;1.00;99.90;;;;;;5010747;28;20203;-51
2022/03/04 08:48:33;;;;;;;51.30;29.90;;;1.00;99.90;;;;;;5011776;28;20299;-51
2022/03/04 08:51:02;;;;;;;49.67;29.63;;;1.00;99.90;;;;;;5011709;28;20282;-51
2022/03/04 08:53:31;;;;;;;51.70;29.80;;;0.90;99.90;;;;;;5010734;28;20294;-51
2022/03/04 08:55:59;;;;;;;47.03;28.33;;;1.00;99.90;;;;;;5011111;28;20235;-51
2022/03/04 08:58:29;;;;;;;47.90;28.57;;;1.00;99.90;;;;;;5011408;28;20206;-51
2022/03/04 09:00:57;;;;;;;46.47;28.00;;;1.10;99.90;;;;;;5011638;28;20249;-52
2022/03/04 09:03:26;;;;;;;49.90;28.77;;;1.10;99.90;;;;;;5010087;28;20291;-52
2022/03/04 09:05:54;;;;;;;50.40;29.70;;;1.20;99.90;;;;;;5011799;28;20742;-51
2022/03/04 09:08:22;;;;;;;52.40;29.00;;;1.30;99.90;;;;;;5011275;28;20229;-51
2022/03/04 09:10:50;;;;;;;49.07;27.23;;;1.40;99.90;;;;;;5011537;28;20267;-51
2022/03/04 09:13:18;;;;;;;48.53;28.67;;;1.40;99.90;;;;;;5010657;28;20230;-52
2022/03/04 09:15:48;;;;;;;50.97;28.70;;;1.30;99.90;;;;;;5010106;28;20214;-51
2022/03/04 09:18:16;;;;;;;46.47;27.63;;;1.20;99.90;;;;;;5006415;28;20678;-51
2022/03/04 09:20:45;;;;;;;52.50;29.13;;;1.20;99.90;;;;;;4990505;28;20207;-51
2022/03/04 09:23:13;;;;;;;49.47;28.00;;;1.20;99.90;;;;;;4991608;28;20579;-51
2022/03/04 09:25:41;;;;;;;51.00;28.80;;;1.10;99.90;;;;;;4991270;28;20209;-51
2022/03/04 09:28:09;;;;;;;44.30;25.27;;;1.10;99.90;;;;;;4991804;28;20208;-51
2022/03/04 09:30:38;;;;;;;48.97;27.43;;;1.10;99.90;;;;;;4991841;28;20309;-51
2022/03/04 09:33:07;;;;;;;47.07;26.80;;;1.20;99.90;;;;;;4990485;28;20211;-51
2022/03/04 09:35:36;;;;;;;46.57;27.33;;;1.30;99.90;;;;;;4992219;28;20217;-51
2022/03/04 09:38:04;;;;;;;47.33;28.07;;;1.40;99.90;;;;;;4991627;28;20206;-51
2022/03/04 09:40:33;;;;;;;48.90;27.07;;;1.60;99.90;;;;;;4992222;28;20214;-51
2022/03/04 09:43:01;;;;;;;50.40;27.50;;;1.80;99.90;;;;;;4998541;28;20202;-51
2022/03/04 09:45:30;;;;;;;48.10;27.70;;;2.00;99.90;;;;;;5009064;28;20565;-51
2022/03/04 09:47:58;;;;;;;48.43;27.20;;;2.00;99.90;;;;;;5000487;28;20256;-51
2022/03/04 09:50:30;;;;;;;44.40;25.97;;;2.20;99.90;;;;;;4991932;28;20715;-52
2022/03/04 09:52:59;;;;;;;41.33;25.13;;;2.20;99.90;;;;;;5003668;28;20689;-51
2022/03/04 09:55:28;;;;;;;47.43;26.93;;;2.30;99.90;;;;;;4991851;28;20742;-51
2022/03/04 09:57:56;;;;;;;47.10;26.10;;;2.40;99.90;;;;;;4991827;28;20214;-50
2022/03/04 10:00:25;;;;;;;49.27;27.83;;;2.50;99.90;;;;;;4993230;28;20264;-50
2022/03/04 10:02:53;;;;;;;45.93;25.63;;;2.50;99.90;;;;;;4992044;28;20207;-50
2022/03/04 10:05:22;;;;;;;45.67;27.20;;;2.50;99.90;;;;;;4994164;28;20305;-51
2022/03/04 10:07:51;;;;;;;48.10;27.50;;;2.60;99.90;;;;;;4995220;28;20215;-51
2022/03/04 10:10:22;;;;;;;58.20;34.40;;;2.60;99.90;;;;;;4994838;28;20236;-51
2022/03/04 10:12:53;;;;;;;46.97;26.70;;;2.60;99.90;;;;;;4994272;28;20188;-50
2022/03/04 10:15:21;;;;;;;44.27;25.57;;;2.50;99.90;;;;;;4992601;28;20667;-51
2022/03/04 10:18:01;;;;;;;43.40;26.50;;;2.60;99.90;;;;;;4992185;28;20211;-51
2022/03/04 10:20:39;;;;;;;43.83;25.73;;;2.60;99.90;;;;;;4990907;28;20283;-51
2022/03/04 10:23:14;;;;;;;43.97;25.30;;;2.70;99.90;;;;;;4990190;28;20630;-51
2022/03/04 10:25:45;;;;;;;41.97;24.13;;;2.60;99.90;;;;;;4991925;28;20231;-51
2022/03/04 10:28:14;;;;;;;44.07;24.60;;;2.60;99.90;;;;;;4991944;28;20199;-51
2022/03/04 10:30:45;;;;;;;40.53;24.97;;;2.60;99.90;;;;;;4991016;28;20230;-51
2022/03/04 10:33:16;;;;;;;43.37;24.03;;;2.60;99.90;;;;;;4992170;28;20227;-51
2022/03/04 10:35:46;;;;;;;42.73;24.70;;;2.60;99.90;;;;;;5002905;28;20207;-51
2022/03/04 10:38:24;;;;;;;42.33;24.57;;;2.50;99.90;;;;;;5010760;28;20211;-51
2022/03/04 10:40:52;;;;;;;40.50;23.17;;;2.70;99.90;;;;;;5011321;28;20211;-50
2022/03/04 10:43:30;;;;;;;42.50;24.77;;;2.80;99.90;;;;;;5009688;28;20319;-50
2022/03/04 10:46:04;;;;;;;43.42;26.48;;;2.80;99.90;;;;;;4983973;28;20450;-51
2022/03/04 10:48:33;;;;;;;41.20;24.93;;;2.80;99.90;;;;;;5005124;28;20244;-51
2022/03/04 10:51:05;;;;;;;44.13;24.97;;;2.90;99.90;;;;;;5005083;28;20582;-50
2022/03/04 10:53:35;;;;;;;44.27;24.67;;;2.90;99.90;;;;;;4993009;28;20235;-53
2022/03/04 10:56:07;;;;;;;39.00;23.63;;;2.90;99.90;;;;;;5011904;28;20207;-53
2022/03/04 10:58:38;;;;;;;43.07;24.63;;;3.10;99.90;;;;;;5012535;28;20733;-54
2022/03/04 11:01:09;;;;;;;42.80;24.50;;;3.10;99.90;;;;;;5012727;28;20247;-54
2022/03/04 11:03:39;;;;;;;43.50;23.53;;;3.20;99.90;;;;;;5006921;28;20602;-53
2022/03/04 11:06:10;;;;;;;42.70;25.77;;;3.20;99.90;;;;;;5012448;28;20212;-53
2022/03/04 11:08:40;;;;;;;42.77;24.97;;;3.20;99.90;;;;;;5011415;28;20253;-54
2022/03/04 11:11:08;;;;;;;42.63;23.13;;;3.40;99.90;;;;;;5011042;28;20648;-53
2022/03/04 11:13:37;;;;;;;43.57;24.63;;;3.40;99.90;;;;;;5012062;28;20725;-53
2022/03/04 11:16:07;;;;;;;40.80;23.93;;;3.40;99.90;;;;;;5011886;28;20872;-52
2022/03/04 11:18:36;;;;;;;40.33;24.40;;;3.50;99.90;;;;;;5010938;28;20196;-53
2022/03/04 11:21:05;;;;;;;38.10;22.83;;;3.50;99.90;;;;;;5009230;28;20210;-53
2022/03/04 11:23:36;;;;;;;39.63;24.53;;;3.50;99.90;;;;;;5011409;28;20227;-53
2022/03/04 11:26:10;;;;;;;37.23;22.80;;;3.50;99.90;;;;;;5012536;28;20268;-53
2022/03/04 11:28:40;;;;;;;41.53;23.07;;;3.60;99.90;;;;;;5011766;28;20210;-53
2022/03/04 11:31:11;;;;;;;42.70;24.20;;;3.60;99.90;;;;;;5012077;28;20579;-49
2022/03/04 11:33:43;;;;;;;38.67;23.60;;;3.80;99.90;;;;;;5010868;28;20221;-50
2022/03/04 11:36:16;;;;;;;39.30;23.00;;;3.80;99.90;;;;;;5012748;28;20212;-51
2022/03/04 11:39:12;;;;;;;40.53;23.30;;;3.80;99.90;;;;;;5012268;28;20195;-50
2022/03/04 11:42:11;;;;;;;40.27;23.33;;;3.80;99.90;;;;;;4996057;28;20327;-50
2022/03/04 11:44:56;;;;;;;40.80;23.60;;;3.80;99.90;;;;;;4993631;28;20234;-51
2022/03/04 11:47:27;;;;;;;39.33;23.00;;;3.80;99.90;;;;;;4986548;28;20204;-53
2022/03/04 11:49:55;;;;;;;38.00;23.27;;;3.90;99.90;;;;;;5002752;28;20258;-51
2022/03/04 11:52:27;;;;;;;37.53;22.50;;;4.00;99.90;;;;;;5010401;28;20211;-51
2022/03/04 11:55:27;;;;;;;38.37;22.90;;;4.10;99.90;;;;;;5011359;28;20745;-51
2022/03/04 11:58:00;;;;;;;38.00;23.20;;;4.20;99.90;;;;;;5005182;28;20242;-51
2022/03/04 12:00:31;;;;;;;34.43;20.53;;;4.30;99.90;;;;;;5010446;28;20281;-51
2022/03/04 12:03:11;;;;;;;39.47;20.23;;;4.40;99.90;;;;;;5010722;28;20282;-52
2022/03/04 12:05:50;;;;;;;32.87;21.10;;;4.40;99.90;;;;;;5010911;28;20211;-52
2022/03/04 12:08:18;;;;;;;37.07;20.67;;;4.50;99.90;;;;;;5011556;28;20232;-52
2022/03/04 12:10:50;;;;;;;38.23;19.97;;;4.60;99.90;;;;;;5019334;28;20644;-52
2022/03/04 12:13:20;;;;;;;33.77;20.57;;;4.50;99.90;;;;;;5030887;28;20233;-51
2022/03/04 12:15:57;;;;;;;31.93;19.33;;;4.50;99.90;;;;;;5031393;28;20686;-52
2022/03/04 12:18:45;;;;;;;34.03;20.07;;;4.50;99.90;;;;;;5019057;28;20240;-52
2022/03/04 12:21:24;;;;;;;27.30;18.37;;;4.60;99.90;;;;;;5000272;28;20247;-51
2022/03/04 12:24:04;;;;;;;32.17;19.03;;;4.60;99.90;;;;;;4991227;28;20232;-52
2022/03/04 12:26:43;;;;;;;32.57;19.10;;;4.70;99.90;;;;;;4991546;28;20194;-48
2022/03/04 12:29:13;;;;;;;30.03;18.80;;;4.70;99.90;;;;;;4994776;28;20579;-54
2022/03/04 12:31:44;;;;;;;30.60;18.33;;;4.70;99.90;;;;;;5006933;28;20233;-52
2022/03/04 12:34:19;;;;;;;29.80;18.17;;;4.80;99.90;;;;;;5010823;28;20245;-52
2022/03/04 12:36:47;;;;;;;30.83;18.87;;;4.80;99.90;;;;;;5011360;28;20213;-50
2022/03/04 12:39:18;;;;;;;29.87;18.50;;;4.90;99.90;;;;;;5010755;28;20208;-53
2022/03/04 12:41:49;;;;;;;29.93;18.17;;;5.00;99.90;;;;;;5006261;28;20831;-52
2022/03/04 12:44:17;;;;;;;31.43;18.97;;;5.00;99.90;;;;;;5002079;28;20233;-51